createdAt,value
2023-03-21T00:04:25.916Z,9.23
2023-03-21T00:09:27.906Z,8.10
2023-03-21T00:14:31.778Z,6.83
2023-03-21T00:19:38.488Z,8.63
2023-03-21T00:24:40.870Z,8.60
2023-03-21T00:29:44.312Z,9.50
2023-03-21T00:34:59.574Z,6.93
2023-03-21T00:40:16.388Z,7.40
2023-03-21T00:45:26.891Z,7.33
2023-03-21T00:50:29.135Z,7.43
2023-03-21T00:55:31.555Z,5.87
2023-03-21T01:00:37.287Z,6.80
2023-03-21T01:06:00.120Z,4.80
2023-03-21T01:11:09.054Z,6.20
2023-03-21T01:16:13.665Z,7.17
2023-03-21T01:21:16.144Z,8.27
2023-03-21T01:26:18.280Z,3.97
2023-03-21T01:31:22.066Z,5.43
2023-03-21T01:36:26.755Z,5.47
2023-03-21T01:41:46.694Z,4.07
2023-03-21T01:47:11.334Z,4.90
2023-03-21T01:52:26.774Z,3.20
2023-03-21T01:57:42.366Z,2.37
2023-03-21T02:02:58.044Z,3.90
2023-03-21T02:08:02.847Z,4.13
2023-03-21T02:13:09.950Z,3.57
2023-03-21T02:18:18.711Z,3.93
2023-03-21T02:23:59.860Z,3.27
2023-03-21T02:29:08.916Z,3.73
2023-03-21T02:34:37.500Z,2.87
2023-03-21T02:39:54.847Z,3.03
2023-03-21T02:45:02.848Z,4.03
2023-03-21T02:50:11.243Z,7.20
2023-03-21T02:55:19.156Z,4.93
2023-03-21T03:00:24.737Z,3.50
2023-03-21T03:05:29.672Z,5.73
2023-03-21T03:10:43.542Z,3.50
2023-03-21T03:15:57.133Z,2.80
2023-03-21T03:21:08.575Z,4.53
2023-03-21T03:26:17.107Z,5.03
2023-03-21T03:31:26.355Z,3.30
2023-03-21T03:36:36.096Z,3.43
2023-03-21T03:42:06.097Z,5.53
2023-03-21T03:47:15.173Z,4.43
2023-03-21T03:52:24.887Z,5.40
2023-03-21T03:57:29.128Z,4.43
2023-03-21T04:02:32.449Z,5.60
2023-03-21T04:07:35.154Z,5.23
2023-03-21T04:12:38.605Z,5.13
2023-03-21T04:17:40.789Z,3.07
2023-03-21T04:22:43.005Z,7.23
2023-03-21T04:27:48.638Z,5.53
2023-03-21T04:32:54.302Z,2.87
2023-03-21T04:37:56.773Z,4.90
2023-03-21T04:43:01.451Z,4.73
2023-03-21T04:48:04.648Z,6.07
2023-03-21T04:53:06.731Z,4.70
2023-03-21T04:58:10.567Z,5.57
2023-03-21T05:03:19.872Z,7.77
2023-03-21T05:08:22.050Z,5.83
2023-03-21T05:13:25.957Z,6.20
2023-03-21T05:18:28.148Z,7.20
2023-03-21T05:23:31.817Z,8.03
2023-03-21T05:28:36.990Z,7.37
2023-03-21T05:33:39.019Z,6.93
2023-03-21T05:38:45.599Z,6.13
2023-03-21T05:43:49.288Z,4.40
2023-03-21T05:48:52.249Z,8.50
2023-03-21T05:53:54.526Z,4.50
2023-03-21T05:58:58.409Z,6.43
2023-03-21T06:04:00.844Z,8.70
2023-03-21T06:09:02.925Z,4.53
2023-03-21T06:14:07.069Z,5.57
2023-03-21T06:19:09.479Z,5.03
2023-03-21T06:24:12.085Z,4.97
2023-03-21T06:29:16.037Z,3.90
2023-03-21T06:34:18.437Z,7.07
2023-03-21T06:39:20.213Z,11.23
2023-03-21T06:44:24.540Z,10.47
2023-03-21T06:49:27.726Z,11.63
2023-03-21T06:54:31.133Z,9.73
2023-03-21T06:59:34.756Z,8.30
2023-03-21T07:04:36.946Z,9.70
2023-03-21T07:09:39.452Z,11.83
2023-03-21T07:14:42.958Z,9.37
2023-03-21T07:19:45.117Z,11.27
2023-03-21T07:24:55.879Z,9.83
2023-03-21T07:30:07.678Z,4.97
2023-03-21T07:35:13.151Z,10.40
2023-03-21T07:40:15.850Z,12.37
2023-03-21T07:45:22.120Z,9.90
2023-03-21T07:50:24.452Z,11.03
2023-03-21T07:55:26.717Z,7.80
2023-03-21T08:00:31.744Z,8.50
2023-03-21T08:05:37.327Z,7.90
2023-03-21T08:10:39.945Z,5.03
2023-03-21T08:15:43.514Z,5.83
2023-03-21T08:20:45.793Z,8.60
2023-03-21T08:25:48.179Z,7.07
2023-03-21T08:30:52.155Z,6.90
2023-03-21T08:35:54.089Z,7.17
2023-03-21T08:40:59.149Z,2.90
2023-03-21T08:46:04.786Z,4.43
2023-03-21T08:51:07.536Z,3.37
2023-03-21T08:56:10.711Z,3.87
2023-03-21T09:01:15.899Z,6.63
2023-03-21T09:06:18.873Z,5.03
2023-03-21T09:11:21.038Z,9.63
2023-03-21T09:16:25.231Z,3.60
2023-03-21T09:21:28.909Z,7.53
2023-03-21T09:26:31.524Z,6.47
2023-03-21T09:31:35.610Z,4.93
2023-03-21T09:36:38.964Z,3.78
2023-03-21T09:42:01.894Z,3.42
2023-03-21T09:47:17.430Z,4.45
2023-03-21T09:52:25.919Z,3.45
2023-03-21T09:57:34.380Z,4.07
2023-03-21T10:02:40.982Z,3.87
2023-03-21T10:07:47.913Z,4.00
2023-03-21T10:12:53.138Z,3.20
2023-03-21T10:18:01.780Z,4.00
2023-03-21T10:23:08.003Z,3.45
2023-03-21T10:28:16.959Z,2.72
2023-03-21T10:33:24.300Z,2.50
2023-03-21T10:38:27.781Z,5.03
2023-03-21T10:43:38.061Z,4.50
2023-03-21T10:48:46.637Z,2.65
2023-03-21T10:53:53.909Z,4.57
2023-03-21T10:59:00.139Z,2.25
2023-03-21T11:04:09.910Z,3.47
2023-03-21T11:09:17.836Z,3.15
2023-03-21T11:14:35.402Z,3.25
2023-03-21T11:19:39.809Z,1.98
2023-03-21T11:24:43.411Z,4.25
2023-03-21T11:29:48.962Z,4.43
2023-03-21T11:34:58.183Z,2.72
2023-03-21T11:40:09.540Z,2.75
2023-03-21T11:45:17.459Z,2.78
2023-03-21T11:50:32.784Z,3.85
2023-03-21T11:55:47.497Z,3.38
2023-03-21T12:00:57.428Z,3.53
2023-03-21T12:06:04.538Z,5.47
2023-03-21T12:11:14.599Z,4.35
2023-03-21T12:16:34.974Z,3.67
2023-03-21T12:21:49.330Z,2.70
2023-03-21T12:26:59.291Z,3.60
2023-03-21T12:32:12.397Z,4.43
2023-03-21T12:37:24.132Z,2.80
2023-03-21T12:42:59.225Z,2.30
2023-03-21T12:48:16.590Z,4.70
2023-03-21T12:53:36.344Z,6.47
2023-03-21T12:58:46.331Z,4.28
2023-03-21T13:03:53.186Z,2.28
2023-03-21T13:09:01.972Z,3.80
2023-03-21T13:14:07.661Z,3.13
2023-03-21T13:19:20.049Z,2.20
2023-03-21T13:24:30.070Z,1.83
2023-03-21T13:29:37.160Z,2.33
2023-03-21T13:34:41.612Z,2.33
2023-03-21T13:39:47.694Z,3.10
2023-03-21T13:44:51.627Z,2.63
2023-03-21T13:50:25.875Z,4.45
2023-03-21T13:55:30.688Z,2.15
2023-03-21T14:00:35.314Z,3.13
2023-03-21T14:05:38.983Z,3.45
2023-03-21T14:10:46.331Z,4.93
2023-03-21T14:15:55.945Z,4.80
2023-03-21T14:21:02.154Z,2.08
2023-03-21T14:26:09.821Z,2.30
2023-03-21T14:31:17.480Z,3.35
2023-03-21T14:36:22.777Z,4.28
2023-03-21T14:41:28.714Z,2.42
2023-03-21T14:46:31.255Z,2.58
2023-03-21T14:51:33.519Z,4.78
2023-03-21T14:56:39.364Z,3.90
2023-03-21T15:01:42.084Z,3.80
2023-03-21T15:06:52.605Z,3.78
2023-03-21T15:11:57.900Z,4.47
2023-03-21T15:17:02.354Z,5.25
2023-03-21T15:22:14.597Z,4.82
2023-03-21T15:27:21.615Z,6.30
2023-03-21T15:32:26.924Z,4.53
2023-03-21T15:37:30.055Z,11.00
2023-03-21T15:42:38.746Z,8.13
2023-03-21T15:47:51.864Z,7.30
2023-03-21T15:52:54.735Z,4.75
2023-03-21T15:58:05.592Z,6.33
2023-03-21T16:03:17.270Z,5.57
2023-03-21T16:08:21.446Z,8.80
2023-03-21T16:13:25.308Z,7.67
2023-03-21T16:18:29.656Z,8.33
2023-03-21T16:23:31.868Z,9.53
2023-03-21T16:28:35.792Z,6.83
2023-03-21T16:33:38.155Z,6.97
2023-03-21T16:38:40.512Z,7.23
2023-03-21T16:43:44.729Z,7.87
2023-03-21T16:48:49.923Z,11.33
2023-03-21T16:53:52.285Z,12.07
2023-03-21T16:58:57.423Z,7.97
2023-03-21T17:04:00.640Z,6.83
2023-03-21T17:09:05.021Z,9.03
2023-03-21T17:14:09.990Z,8.20
2023-03-21T17:19:15.206Z,7.43
2023-03-21T17:24:17.666Z,7.67
2023-03-21T17:29:22.037Z,10.17
2023-03-21T17:34:25.321Z,7.77
2023-03-21T17:39:29.371Z,16.27
2023-03-21T17:44:33.858Z,13.70
2023-03-21T17:49:36.508Z,8.67
2023-03-21T17:54:38.820Z,13.33
2023-03-21T17:59:44.071Z,10.90
2023-03-21T18:04:47.008Z,9.77
2023-03-21T18:09:49.982Z,12.77
2023-03-21T18:14:57.636Z,8.90
2023-03-21T18:20:02.029Z,10.23
2023-03-21T18:25:06.131Z,9.73
2023-03-21T18:30:36.109Z,10.27
2023-03-21T18:35:43.297Z,8.43
2023-03-21T18:40:47.822Z,11.03
2023-03-21T18:45:56.510Z,9.30
2023-03-21T18:50:59.916Z,15.87
2023-03-21T18:56:09.624Z,15.90
2023-03-21T19:01:14.585Z,15.93
2023-03-21T19:06:18.763Z,14.63
2023-03-21T19:11:23.900Z,15.37
2023-03-21T19:16:34.511Z,14.13
2023-03-21T19:21:53.833Z,12.97
2023-03-21T19:26:58.421Z,11.70
2023-03-21T19:32:04.220Z,12.67
2023-03-21T19:37:11.103Z,17.60
2023-03-21T19:42:17.664Z,10.47
2023-03-21T19:47:23.928Z,12.13
2023-03-21T19:52:27.576Z,12.67
2023-03-21T19:57:31.442Z,14.57
2023-03-21T20:02:37.164Z,14.67
2023-03-21T20:07:43.967Z,12.10
2023-03-21T20:12:47.734Z,16.47
2023-03-21T20:17:54.479Z,13.33
2023-03-21T20:23:07.403Z,12.30
2023-03-21T20:28:17.312Z,11.10
2023-03-21T20:33:31.007Z,9.70
2023-03-21T20:38:35.854Z,12.07
2023-03-21T20:49:09.045Z,10.70
2023-03-21T20:54:28.680Z,10.93
2023-03-21T21:00:26.666Z,15.40
2023-03-21T21:06:05.114Z,10.53
2023-03-21T21:16:54.710Z,12.87
2023-03-21T21:21:58.615Z,12.30
2023-03-21T21:27:01.527Z,13.50
2023-03-21T21:32:05.448Z,11.87
2023-03-21T21:37:09.113Z,11.47
2023-03-21T21:42:11.407Z,8.63
2023-03-21T21:47:13.580Z,10.73
2023-03-21T21:52:22.201Z,8.40
2023-03-21T21:57:24.456Z,8.10
2023-03-21T22:02:27.473Z,9.57
2023-03-21T22:07:32.453Z,8.97
2023-03-21T22:12:34.708Z,7.67
2023-03-21T22:17:37.721Z,8.03
2023-03-21T22:22:41.937Z,5.80
2023-03-21T22:27:44.438Z,7.67
2023-03-21T22:32:56.483Z,8.80
2023-03-21T22:38:06.072Z,4.87
2023-03-21T22:43:08.959Z,5.17
2023-03-21T22:48:11.271Z,4.47
2023-03-21T22:53:15.088Z,4.03
2023-03-21T22:58:17.491Z,7.43
2023-03-21T23:03:19.879Z,7.50
2023-03-21T23:08:23.914Z,5.67
2023-03-21T23:13:27.127Z,6.90
2023-03-21T23:18:29.359Z,7.90
2023-03-21T23:23:36.808Z,6.33
2023-03-21T23:28:39.465Z,7.77
2023-03-21T23:33:41.807Z,8.03
2023-03-21T23:38:46.328Z,8.57
2023-03-21T23:43:49.318Z,5.23
2023-03-21T23:48:51.597Z,7.10
2023-03-21T23:53:56.683Z,7.27
2023-03-21T23:58:59.705Z,9.57
